LGTL

Kasteli Airport

Crete Island, Greece
TAF LGTL 212300Z 2200/2209 01007KT 9999 SCT020 BECMG 2201/2203 18010KT
Issued Valid From Valid To
Jan-21 @ 23:00 UTC
(an hour ago)
Jan-22 @ 00:00 UTC
(29 minutes ago)
Jan-22 @ 09:00 UTC
(in 9 hours)
Jan-22 @ 00:00 to Jan-22 @ 01:00
TAF LGTL 212300Z 2200/2209 01007KT 9999 SCT020
Wind Visibility Clouds
10° at 7 knots 10,000+ meters
  • Scattered at 2,000' AGL
Becoming Jan-22 @ 01:00 to Jan-22 @ 09:00
BECMG 2201/2203 18010KT
Wind Visibility Clouds
180° at 10 knots 10,000+ meters
  • Scattered at 2,000' AGL
TAF LGTL 212300Z 2200/2209 01007KT 9999 SCT020 BECMG 2201/2203 18010KT
Issued Jan-21 @ 23:00 UTC
(an hour ago)
Valid From Jan-22 @ 00:00 UTC
(29 minutes ago)
Valid To Jan-22 @ 09:00 UTC
(in 9 hours)
Jan-22 @ 00:00 - Jan-22 @ 01:00
Wind Visibility
10° at 7 knots 10,000+ meters
Clouds
  • Scattered at 2,000' AGL
Becoming Jan-22 @ 01:00 - Jan-22 @ 09:00
Wind Visibility
180° at 10 knots 10,000+ meters
Clouds
  • Scattered at 2,000' AGL